sensor_id;sensor_type;location;lat;lon;timestamp;pressure;altitude;pressure_sealevel;temperature
61977;BMP280;45905;50.570;10.428;2023-07-31T00:00:55;97643.06;;;17.26
61977;BMP280;45905;50.570;10.428;2023-07-31T00:03:22;97646.59;;;17.25
61977;BMP280;45905;50.570;10.428;2023-07-31T00:05:49;97642.50;;;17.24
61977;BMP280;45905;50.570;10.428;2023-07-31T00:08:17;97648.59;;;17.23
61977;BMP280;45905;50.570;10.428;2023-07-31T00:10:45;97649.38;;;17.23
61977;BMP280;45905;50.570;10.428;2023-07-31T00:13:12;97647.81;;;17.22
61977;BMP280;45905;50.570;10.428;2023-07-31T00:15:40;97653.31;;;17.19
61977;BMP280;45905;50.570;10.428;2023-07-31T00:18:07;97637.56;;;17.16
61977;BMP280;45905;50.570;10.428;2023-07-31T00:20:35;97642.69;;;17.16
61977;BMP280;45905;50.570;10.428;2023-07-31T00:23:02;97636.41;;;17.12
61977;BMP280;45905;50.570;10.428;2023-07-31T00:25:30;97638.97;;;17.12
61977;BMP280;45905;50.570;10.428;2023-07-31T00:27:57;97638.38;;;17.10
61977;BMP280;45905;50.570;10.428;2023-07-31T00:30:25;97629.72;;;17.11
61977;BMP280;45905;50.570;10.428;2023-07-31T00:32:54;97617.13;;;17.10
61977;BMP280;45905;50.570;10.428;2023-07-31T00:35:21;97611.66;;;17.06
61977;BMP280;45905;50.570;10.428;2023-07-31T00:37:48;97622.88;;;17.05
61977;BMP280;45905;50.570;10.428;2023-07-31T00:40:16;97625.81;;;17.02
61977;BMP280;45905;50.570;10.428;2023-07-31T00:42:44;97625.22;;;17.00
61977;BMP280;45905;50.570;10.428;2023-07-31T00:45:11;97619.50;;;16.99
61977;BMP280;45905;50.570;10.428;2023-07-31T00:47:39;97629.38;;;16.95
61977;BMP280;45905;50.570;10.428;2023-07-31T00:50:08;97637.84;;;16.96
61977;BMP280;45905;50.570;10.428;2023-07-31T00:52:35;97630.53;;;16.93
61977;BMP280;45905;50.570;10.428;2023-07-31T00:55:04;97619.69;;;16.91
61977;BMP280;45905;50.570;10.428;2023-07-31T00:57:33;97620.13;;;16.88
61977;BMP280;45905;50.570;10.428;2023-07-31T01:00:01;97608.31;;;16.87
61977;BMP280;45905;50.570;10.428;2023-07-31T01:02:28;97613.44;;;16.87
61977;BMP280;45905;50.570;10.428;2023-07-31T01:04:56;97606.94;;;16.84
61977;BMP280;45905;50.570;10.428;2023-07-31T01:08:15;97603.00;;;16.82
61977;BMP280;45905;50.570;10.428;2023-07-31T01:11:00;97603.41;;;16.79
61977;BMP280;45905;50.570;10.428;2023-07-31T01:13:30;97601.84;;;16.78
61977;BMP280;45905;50.570;10.428;2023-07-31T01:15:57;97598.50;;;16.78
61977;BMP280;45905;50.570;10.428;2023-07-31T01:18:26;97608.34;;;16.80
61977;BMP280;45905;50.570;10.428;2023-07-31T01:21:08;97599.88;;;16.80
61977;BMP280;45905;50.570;10.428;2023-07-31T01:26:56;97600.66;;;16.68
61977;BMP280;45905;50.570;10.428;2023-07-31T01:32:11;97596.94;;;16.70
61977;BMP280;45905;50.570;10.428;2023-07-31T01:34:41;97597.91;;;16.69
61977;BMP280;45905;50.570;10.428;2023-07-31T01:37:09;97592.00;;;16.69
61977;BMP280;45905;50.570;10.428;2023-07-31T01:39:36;97583.34;;;16.63
61977;BMP280;45905;50.570;10.428;2023-07-31T01:42:04;97583.19;;;16.59
61977;BMP280;45905;50.570;10.428;2023-07-31T01:44:32;97587.31;;;16.53
61977;BMP280;45905;50.570;10.428;2023-07-31T01:47:00;97584.97;;;16.52
61977;BMP280;45905;50.570;10.428;2023-07-31T01:49:27;97588.69;;;16.49
61977;BMP280;45905;50.570;10.428;2023-07-31T01:51:55;97584.97;;;16.45
61977;BMP280;45905;50.570;10.428;2023-07-31T01:54:23;97580.25;;;16.42
61977;BMP280;45905;50.570;10.428;2023-07-31T01:56:50;97575.94;;;16.43
61977;BMP280;45905;50.570;10.428;2023-07-31T01:59:18;97588.13;;;16.41
61977;BMP280;45905;50.570;10.428;2023-07-31T02:01:45;97587.31;;;16.41
61977;BMP280;45905;50.570;10.428;2023-07-31T02:04:13;97582.03;;;16.42
61977;BMP280;45905;50.570;10.428;2023-07-31T02:06:44;97577.09;;;16.41
61977;BMP280;45905;50.570;10.428;2023-07-31T02:09:11;97564.50;;;16.39
61977;BMP280;45905;50.570;10.428;2023-07-31T02:11:39;97564.50;;;16.39
61977;BMP280;45905;50.570;10.428;2023-07-31T02:14:06;97557.81;;;16.38
61977;BMP280;45905;50.570;10.428;2023-07-31T02:16:33;97559.81;;;16.36
61977;BMP280;45905;50.570;10.428;2023-07-31T02:19:01;97557.03;;;16.38
61977;BMP280;45905;50.570;10.428;2023-07-31T02:21:28;97569.63;;;16.39
61977;BMP280;45905;50.570;10.428;2023-07-31T02:23:56;97559.81;;;16.36
61977;BMP280;45905;50.570;10.428;2023-07-31T02:26:23;97559.22;;;16.34
61977;BMP280;45905;50.570;10.428;2023-07-31T02:28:50;97563.75;;;16.32
61977;BMP280;45905;50.570;10.428;2023-07-31T02:31:17;97572.38;;;16.31
61977;BMP280;45905;50.570;10.428;2023-07-31T02:33:48;97563.75;;;16.32
61977;BMP280;45905;50.570;10.428;2023-07-31T02:36:16;97562.16;;;16.31
61977;BMP280;45905;50.570;10.428;2023-07-31T02:38:43;97565.09;;;16.28
61977;BMP280;45905;50.570;10.428;2023-07-31T02:41:11;97561.78;;;16.28
61977;BMP280;45905;50.570;10.428;2023-07-31T02:43:38;97555.31;;;16.25
61977;BMP280;45905;50.570;10.428;2023-07-31T02:46:06;97563.16;;;16.24
61977;BMP280;45905;50.570;10.428;2023-07-31T02:48:33;97560.00;;;16.22
61977;BMP280;45905;50.570;10.428;2023-07-31T02:51:01;97568.47;;;16.23
61977;BMP280;45905;50.570;10.428;2023-07-31T02:53:28;97566.88;;;16.22
61977;BMP280;45905;50.570;10.428;2023-07-31T02:55:55;97556.06;;;16.20
61977;BMP280;45905;50.570;10.428;2023-07-31T02:58:23;97555.09;;;16.21
61977;BMP280;45905;50.570;10.428;2023-07-31T03:00:51;97551.75;;;16.20
61977;BMP280;45905;50.570;10.428;2023-07-31T03:03:18;97551.97;;;16.19
61977;BMP280;45905;50.570;10.428;2023-07-31T03:05:45;97552.75;;;16.19
61977;BMP280;45905;50.570;10.428;2023-07-31T03:08:13;97551.38;;;16.17
61977;BMP280;45905;50.570;10.428;2023-07-31T03:10:40;97549.19;;;16.14
61977;BMP280;45905;50.570;10.428;2023-07-31T03:13:08;97545.66;;;16.15
61977;BMP280;45905;50.570;10.428;2023-07-31T03:15:35;97549.78;;;16.16
61977;BMP280;45905;50.570;10.428;2023-07-31T03:18:03;97549.00;;;16.15
61977;BMP280;45905;50.570;10.428;2023-07-31T03:20:30;97552.53;;;16.14
61977;BMP280;45905;50.570;10.428;2023-07-31T03:22:58;97544.28;;;16.12
61977;BMP280;45905;50.570;10.428;2023-07-31T03:25:25;97548.81;;;16.17
61977;BMP280;45905;50.570;10.428;2023-07-31T03:27:53;97545.28;;;16.18
61977;BMP280;45905;50.570;10.428;2023-07-31T03:30:20;97547.84;;;16.18
61977;BMP280;45905;50.570;10.428;2023-07-31T03:32:48;97547.84;;;16.18
61977;BMP280;45905;50.570;10.428;2023-07-31T03:35:16;97536.63;;;16.12
61977;BMP280;45905;50.570;10.428;2023-07-31T03:37:43;97535.47;;;16.08
61977;BMP280;45905;50.570;10.428;2023-07-31T03:40:10;97542.94;;;16.10
61977;BMP280;45905;50.570;10.428;2023-07-31T03:42:38;97537.81;;;16.10
61977;BMP280;45905;50.570;10.428;2023-07-31T03:45:06;97540.94;;;16.12
61977;BMP280;45905;50.570;10.428;2023-07-31T03:47:34;97538.38;;;16.12
61977;BMP280;45905;50.570;10.428;2023-07-31T03:50:03;97544.47;;;16.11
61977;BMP280;45905;50.570;10.428;2023-07-31T03:52:30;97539.78;;;16.08
61977;BMP280;45905;50.570;10.428;2023-07-31T03:54:58;97531.53;;;16.06
61977;BMP280;45905;50.570;10.428;2023-07-31T03:57:25;97533.09;;;16.07
61977;BMP280;45905;50.570;10.428;2023-07-31T03:59:53;97527.19;;;16.06
61977;BMP280;45905;50.570;10.428;2023-07-31T04:02:21;97531.31;;;16.07
61977;BMP280;45905;50.570;10.428;2023-07-31T04:04:48;97527.00;;;16.08
61977;BMP280;45905;50.570;10.428;2023-07-31T04:07:16;97529.56;;;16.08
61977;BMP280;45905;50.570;10.428;2023-07-31T04:09:43;97529.38;;;16.09
61977;BMP280;45905;50.570;10.428;2023-07-31T04:12:11;97526.03;;;16.09
61977;BMP280;45905;50.570;10.428;2023-07-31T04:14:38;97531.13;;;16.09
61977;BMP280;45905;50.570;10.428;2023-07-31T04:17:06;97533.50;;;16.10
61977;BMP280;45905;50.570;10.428;2023-07-31T04:19:37;97525.25;;;16.08
61977;BMP280;45905;50.570;10.428;2023-07-31T04:22:05;97531.69;;;16.11
61977;BMP280;45905;50.570;10.428;2023-07-31T04:24:32;97529.16;;;16.11
61977;BMP280;45905;50.570;10.428;2023-07-31T04:26:59;97522.88;;;16.07
61977;BMP280;45905;50.570;10.428;2023-07-31T04:29:27;97522.50;;;16.10
61977;BMP280;45905;50.570;10.428;2023-07-31T04:31:55;97524.03;;;16.11
61977;BMP280;45905;50.570;10.428;2023-07-31T04:34:22;97517.16;;;16.11
61977;BMP280;45905;50.570;10.428;2023-07-31T04:36:49;97517.75;;;16.13
61977;BMP280;45905;50.570;10.428;2023-07-31T04:39:17;97509.50;;;16.11
61977;BMP280;45905;50.570;10.428;2023-07-31T04:41:44;97515.38;;;16.12
61977;BMP280;45905;50.570;10.428;2023-07-31T04:44:12;97504.59;;;16.10
61977;BMP280;45905;50.570;10.428;2023-07-31T04:46:39;97515.81;;;16.09
61977;BMP280;45905;50.570;10.428;2023-07-31T04:49:08;97515.81;;;16.09
61977;BMP280;45905;50.570;10.428;2023-07-31T04:51:35;97522.50;;;16.10
61977;BMP280;45905;50.570;10.428;2023-07-31T04:54:03;97515.38;;;16.12
61977;BMP280;45905;50.570;10.428;2023-07-31T04:56:30;97520.13;;;16.15
61977;BMP280;45905;50.570;10.428;2023-07-31T04:58:58;97519.31;;;16.14
61977;BMP280;45905;50.570;10.428;2023-07-31T05:01:25;97519.91;;;16.16
61977;BMP280;45905;50.570;10.428;2023-07-31T05:03:53;97514.03;;;16.16
61977;BMP280;45905;50.570;10.428;2023-07-31T05:06:20;97521.69;;;16.16
61977;BMP280;45905;50.570;10.428;2023-07-31T05:08:47;97518.94;;;16.17
61977;BMP280;45905;50.570;10.428;2023-07-31T05:11:15;97523.25;;;16.17
61977;BMP280;45905;50.570;10.428;2023-07-31T05:13:42;97523.25;;;16.17
61977;BMP280;45905;50.570;10.428;2023-07-31T05:16:10;97523.47;;;16.15
61977;BMP280;45905;50.570;10.428;2023-07-31T05:18:37;97529.16;;;16.17
61977;BMP280;45905;50.570;10.428;2023-07-31T05:21:05;97527.19;;;16.19
61977;BMP280;45905;50.570;10.428;2023-07-31T05:23:32;97533.06;;;16.20
61977;BMP280;45905;50.570;10.428;2023-07-31T05:26:07;97521.88;;;16.21
61977;BMP280;45905;50.570;10.428;2023-07-31T05:28:36;97520.88;;;16.22
61977;BMP280;45905;50.570;10.428;2023-07-31T05:31:05;97519.91;;;16.23
61977;BMP280;45905;50.570;10.428;2023-07-31T05:33:32;97532.09;;;16.27
61977;BMP280;45905;50.570;10.428;2023-07-31T05:36:00;97528.34;;;16.29
61977;BMP280;45905;50.570;10.428;2023-07-31T05:38:27;97529.72;;;16.32
61977;BMP280;45905;50.570;10.428;2023-07-31T05:40:55;97531.09;;;16.34
61977;BMP280;45905;50.570;10.428;2023-07-31T05:43:22;97526.59;;;16.36
61977;BMP280;45905;50.570;10.428;2023-07-31T05:45:50;97507.28;;;16.40
61977;BMP280;45905;50.570;10.428;2023-07-31T05:48:18;97513.59;;;16.44
61977;BMP280;45905;50.570;10.428;2023-07-31T05:50:45;97514.56;;;16.49
61977;BMP280;45905;50.570;10.428;2023-07-31T05:53:13;97516.13;;;16.50
61977;BMP280;45905;50.570;10.428;2023-07-31T05:55:40;97515.72;;;16.53
61977;BMP280;45905;50.570;10.428;2023-07-31T05:58:08;97521.22;;;16.57
61977;BMP280;45905;50.570;10.428;2023-07-31T06:00:35;97519.25;;;16.59
61977;BMP280;45905;50.570;10.428;2023-07-31T06:03:03;97519.84;;;16.61
61977;BMP280;45905;50.570;10.428;2023-07-31T06:05:30;97521.97;;;16.63
61977;BMP280;45905;50.570;10.428;2023-07-31T06:07:58;97530.84;;;16.67
61977;BMP280;45905;50.570;10.428;2023-07-31T06:10:25;97529.84;;;16.68
61977;BMP280;45905;50.570;10.428;2023-07-31T06:12:53;97516.09;;;16.69
61977;BMP280;45905;50.570;10.428;2023-07-31T06:15:21;97517.66;;;16.70
61977;BMP280;45905;50.570;10.428;2023-07-31T06:17:48;97513.31;;;16.71
61977;BMP280;45905;50.570;10.428;2023-07-31T06:20:15;97518.81;;;16.74
61977;BMP280;45905;50.570;10.428;2023-07-31T06:22:43;97519.41;;;16.76
61977;BMP280;45905;50.570;10.428;2023-07-31T06:25:11;97516.44;;;16.79
61977;BMP280;45905;50.570;10.428;2023-07-31T06:27:42;97517.00;;;16.81
61977;BMP280;45905;50.570;10.428;2023-07-31T06:30:09;97517.59;;;16.83
61977;BMP280;45905;50.570;10.428;2023-07-31T06:32:37;97510.50;;;16.85
61977;BMP280;45905;50.570;10.428;2023-07-31T06:35:05;97514.44;;;16.87
61977;BMP280;45905;50.570;10.428;2023-07-31T06:37:33;97514.03;;;16.90
61977;BMP280;45905;50.570;10.428;2023-07-31T06:40:04;97516.38;;;16.92
61977;BMP280;45905;50.570;10.428;2023-07-31T06:42:32;97510.13;;;16.94
61977;BMP280;45905;50.570;10.428;2023-07-31T06:45:00;97512.84;;;16.93
61977;BMP280;45905;50.570;10.428;2023-07-31T06:47:28;97519.72;;;16.99
61977;BMP280;45905;50.570;10.428;2023-07-31T06:49:56;97513.22;;;17.02
61977;BMP280;45905;50.570;10.428;2023-07-31T06:52:23;97513.22;;;17.02
61977;BMP280;45905;50.570;10.428;2023-07-31T06:55:20;97519.28;;;17.08
61977;BMP280;45905;50.570;10.428;2023-07-31T06:57:53;97510.44;;;17.10
61977;BMP280;45905;50.570;10.428;2023-07-31T07:00:22;97511.03;;;17.12
61977;BMP280;45905;50.570;10.428;2023-07-31T07:02:50;97518.31;;;17.15
61977;BMP280;45905;50.570;10.428;2023-07-31T07:05:18;97516.28;;;17.17
61977;BMP280;45905;50.570;10.428;2023-07-31T07:07:45;97512.75;;;17.18
61977;BMP280;45905;50.570;10.428;2023-07-31T07:10:13;97521.81;;;17.20
61977;BMP280;45905;50.570;10.428;2023-07-31T07:12:41;97516.47;;;17.22
61977;BMP280;45905;50.570;10.428;2023-07-31T07:15:08;97517.63;;;17.26
61977;BMP280;45905;50.570;10.428;2023-07-31T07:17:36;97508.75;;;17.28
61977;BMP280;45905;50.570;10.428;2023-07-31T07:20:04;97510.13;;;17.31
61977;BMP280;45905;50.570;10.428;2023-07-31T07:22:32;97507.16;;;17.34
61977;BMP280;45905;50.570;10.428;2023-07-31T07:24:59;97499.84;;;17.37
61977;BMP280;45905;50.570;10.428;2023-07-31T07:27:27;97497.47;;;17.42
61977;BMP280;45905;50.570;10.428;2023-07-31T07:29:55;97501.97;;;17.46
61977;BMP280;45905;50.570;10.428;2023-07-31T07:32:22;97499.56;;;17.51
61977;BMP280;45905;50.570;10.428;2023-07-31T07:34:50;97504.84;;;17.56
61977;BMP280;45905;50.570;10.428;2023-07-31T07:37:18;97494.75;;;17.61
61977;BMP280;45905;50.570;10.428;2023-07-31T07:39:45;97487.25;;;17.66
61977;BMP280;45905;50.570;10.428;2023-07-31T07:42:14;97494.31;;;17.70
61977;BMP280;45905;50.570;10.428;2023-07-31T07:44:42;97489.56;;;17.74
61977;BMP280;45905;50.570;10.428;2023-07-31T07:47:09;97490.28;;;17.80
61977;BMP280;45905;50.570;10.428;2023-07-31T07:49:36;97483.19;;;17.82
61977;BMP280;45905;50.570;10.428;2023-07-31T07:52:04;97485.50;;;17.90
61977;BMP280;45905;50.570;10.428;2023-07-31T07:54:32;97494.13;;;17.95
61977;BMP280;45905;50.570;10.428;2023-07-31T07:56:59;97497.66;;;18.01
61977;BMP280;45905;50.570;10.428;2023-07-31T07:59:27;97487.53;;;18.06
61977;BMP280;45905;50.570;10.428;2023-07-31T08:01:54;97492.84;;;18.11
61977;BMP280;45905;50.570;10.428;2023-07-31T08:04:22;97489.41;;;18.16
61977;BMP280;45905;50.570;10.428;2023-07-31T08:06:49;97491.56;;;18.19
61977;BMP280;45905;50.570;10.428;2023-07-31T08:09:16;97498.78;;;18.29
61977;BMP280;45905;50.570;10.428;2023-07-31T08:11:44;97486.50;;;18.31
61977;BMP280;45905;50.570;10.428;2023-07-31T08:14:11;97488.59;;;18.40
61977;BMP280;45905;50.570;10.428;2023-07-31T08:16:39;97480.47;;;18.43
61977;BMP280;45905;50.570;10.428;2023-07-31T08:19:07;97481.19;;;18.50
61977;BMP280;45905;50.570;10.428;2023-07-31T08:21:34;97477.34;;;18.58
61977;BMP280;45905;50.570;10.428;2023-07-31T08:24:02;97476.06;;;18.67
61977;BMP280;45905;50.570;10.428;2023-07-31T08:26:29;97480.78;;;18.70
61977;BMP280;45905;50.570;10.428;2023-07-31T08:28:56;97470.25;;;18.78
61977;BMP280;45905;50.570;10.428;2023-07-31T08:31:24;97474.72;;;18.82
61977;BMP280;45905;50.570;10.428;2023-07-31T08:33:52;97465.38;;;18.88
61977;BMP280;45905;50.570;10.428;2023-07-31T08:36:19;97456.38;;;18.96
61977;BMP280;45905;50.570;10.428;2023-07-31T08:38:47;97468.91;;;19.04
61977;BMP280;45905;50.570;10.428;2023-07-31T08:41:15;97464.94;;;19.08
61977;BMP280;45905;50.570;10.428;2023-07-31T08:43:46;97466.19;;;19.17
61977;BMP280;45905;50.570;10.428;2023-07-31T08:46:14;97469.88;;;19.21
61977;BMP280;45905;50.570;10.428;2023-07-31T08:48:42;97476.00;;;19.20
61977;BMP280;45905;50.570;10.428;2023-07-31T08:51:13;97464.16;;;19.19
61977;BMP280;45905;50.570;10.428;2023-07-31T08:53:41;97462.59;;;19.18
61977;BMP280;45905;50.570;10.428;2023-07-31T08:56:09;97468.75;;;19.17
61977;BMP280;45905;50.570;10.428;2023-07-31T08:58:38;97468.66;;;19.23
61977;BMP280;45905;50.570;10.428;2023-07-31T09:01:07;97459.19;;;19.24
61977;BMP280;45905;50.570;10.428;2023-07-31T09:03:36;97465.00;;;19.30
61977;BMP280;45905;50.570;10.428;2023-07-31T09:06:05;97473.59;;;19.36
61977;BMP280;45905;50.570;10.428;2023-07-31T09:08:33;97461.34;;;19.38
61977;BMP280;45905;50.570;10.428;2023-07-31T09:11:02;97457.97;;;19.37
61977;BMP280;45905;50.570;10.428;2023-07-31T09:13:33;97445.50;;;19.41
61977;BMP280;45905;50.570;10.428;2023-07-31T09:16:00;97460.91;;;19.41
61977;BMP280;45905;50.570;10.428;2023-07-31T09:18:28;97451.22;;;19.43
61977;BMP280;45905;50.570;10.428;2023-07-31T09:21:05;97445.81;;;19.44
61977;BMP280;45905;50.570;10.428;2023-07-31T09:23:46;97452.09;;;19.48
61977;BMP280;45905;50.570;10.428;2023-07-31T09:28:59;97443.72;;;19.52
61977;BMP280;45905;50.570;10.428;2023-07-31T09:31:41;97445.53;;;19.52
61977;BMP280;45905;50.570;10.428;2023-07-31T09:34:09;97448.84;;;19.52
61977;BMP280;45905;50.570;10.428;2023-07-31T09:36:47;97446.47;;;19.57
61977;BMP280;45905;50.570;10.428;2023-07-31T09:39:17;97445.56;;;19.63
61977;BMP280;45905;50.570;10.428;2023-07-31T09:42:04;97442.66;;;19.60
61977;BMP280;45905;50.570;10.428;2023-07-31T09:44:39;97446.91;;;19.66
61977;BMP280;45905;50.570;10.428;2023-07-31T09:47:22;97448.91;;;19.64
61977;BMP280;45905;50.570;10.428;2023-07-31T09:49:53;97443.22;;;19.62
61977;BMP280;45905;50.570;10.428;2023-07-31T09:52:21;97442.50;;;19.55
61977;BMP280;45905;50.570;10.428;2023-07-31T09:54:49;97437.53;;;19.60
61977;BMP280;45905;50.570;10.428;2023-07-31T09:57:17;97435.63;;;19.67
61977;BMP280;45905;50.570;10.428;2023-07-31T09:59:48;97434.84;;;19.66
61977;BMP280;45905;50.570;10.428;2023-07-31T10:02:22;97427.25;;;19.71
61977;BMP280;45905;50.570;10.428;2023-07-31T10:04:50;97423.13;;;19.70
61977;BMP280;45905;50.570;10.428;2023-07-31T10:07:20;97422.03;;;19.77
61977;BMP280;45905;50.570;10.428;2023-07-31T10:09:51;97421.13;;;19.83
61977;BMP280;45905;50.570;10.428;2023-07-31T10:12:21;97418.34;;;19.85
61977;BMP280;45905;50.570;10.428;2023-07-31T10:14:52;97414.88;;;19.90
61977;BMP280;45905;50.570;10.428;2023-07-31T10:17:22;97411.38;;;19.96
61977;BMP280;45905;50.570;10.428;2023-07-31T10:19:50;97402.81;;;20.02
61977;BMP280;45905;50.570;10.428;2023-07-31T10:22:20;97408.25;;;20.06
61977;BMP280;45905;50.570;10.428;2023-07-31T10:24:50;97395.75;;;20.09
61977;BMP280;45905;50.570;10.428;2023-07-31T10:27:18;97402.34;;;20.16
61977;BMP280;45905;50.570;10.428;2023-07-31T10:29:47;97391.59;;;20.19
61977;BMP280;45905;50.570;10.428;2023-07-31T10:32:17;97405.13;;;20.26
61977;BMP280;45905;50.570;10.428;2023-07-31T10:34:46;97392.59;;;20.29
61977;BMP280;45905;50.570;10.428;2023-07-31T10:37:36;97390.72;;;20.36
61977;BMP280;45905;50.570;10.428;2023-07-31T10:42:52;97388.78;;;20.32
61977;BMP280;45905;50.570;10.428;2023-07-31T10:48:00;97385.19;;;20.33
61977;BMP280;45905;50.570;10.428;2023-07-31T10:50:31;97378.81;;;20.35
61977;BMP280;45905;50.570;10.428;2023-07-31T10:53:01;97381.53;;;20.29
61977;BMP280;45905;50.570;10.428;2023-07-31T10:58:12;97381.19;;;20.14
61977;BMP280;45905;50.570;10.428;2023-07-31T11:00:44;97388.69;;;20.05
61977;BMP280;45905;50.570;10.428;2023-07-31T11:03:19;97398.53;;;19.96
61977;BMP280;45905;50.570;10.428;2023-07-31T11:06:01;97400.22;;;19.91
61977;BMP280;45905;50.570;10.428;2023-07-31T11:08:41;97396.66;;;19.81
61977;BMP280;45905;50.570;10.428;2023-07-31T11:11:11;97410.25;;;19.70
61977;BMP280;45905;50.570;10.428;2023-07-31T11:13:47;97406.69;;;19.71
61977;BMP280;45905;50.570;10.428;2023-07-31T11:16:20;97409.94;;;19.67
61977;BMP280;45905;50.570;10.428;2023-07-31T11:18:50;97404.97;;;19.54
61977;BMP280;45905;50.570;10.428;2023-07-31T11:21:21;97397.81;;;19.45
61977;BMP280;45905;50.570;10.428;2023-07-31T11:23:56;97390.22;;;19.38
61977;BMP280;45905;50.570;10.428;2023-07-31T11:26:27;97395.56;;;19.26
61977;BMP280;45905;50.570;10.428;2023-07-31T11:28:55;97394.41;;;19.22
61977;BMP280;45905;50.570;10.428;2023-07-31T11:31:22;97395.00;;;19.24
61977;BMP280;45905;50.570;10.428;2023-07-31T11:33:50;97397.56;;;19.24
61977;BMP280;45905;50.570;10.428;2023-07-31T11:36:19;97397.66;;;19.29
61977;BMP280;45905;50.570;10.428;2023-07-31T11:38:47;97395.09;;;19.29
61977;BMP280;45905;50.570;10.428;2023-07-31T11:41:16;97384.16;;;19.22
61977;BMP280;45905;50.570;10.428;2023-07-31T11:43:46;97388.94;;;19.18
61977;BMP280;45905;50.570;10.428;2023-07-31T11:46:15;97379.91;;;19.16
61977;BMP280;45905;50.570;10.428;2023-07-31T11:48:43;97393.84;;;19.20
61977;BMP280;45905;50.570;10.428;2023-07-31T11:51:13;97386.28;;;19.25
61977;BMP280;45905;50.570;10.428;2023-07-31T11:53:44;97384.03;;;19.28
61977;BMP280;45905;50.570;10.428;2023-07-31T11:56:17;97376.25;;;19.34
61977;BMP280;45905;50.570;10.428;2023-07-31T11:58:55;97383.28;;;19.39
61977;BMP280;45905;50.570;10.428;2023-07-31T12:01:26;97382.50;;;19.38
61977;BMP280;45905;50.570;10.428;2023-07-31T12:03:56;97378.72;;;19.41
61977;BMP280;45905;50.570;10.428;2023-07-31T12:06:36;97378.50;;;19.42
61977;BMP280;45905;50.570;10.428;2023-07-31T12:09:05;97367.09;;;19.38
61977;BMP280;45905;50.570;10.428;2023-07-31T12:11:46;97374.13;;;19.31
61977;BMP280;45905;50.570;10.428;2023-07-31T12:14:29;97367.22;;;19.32
61977;BMP280;45905;50.570;10.428;2023-07-31T12:17:00;97372.03;;;19.40
61977;BMP280;45905;50.570;10.428;2023-07-31T12:19:28;97364.09;;;19.41
61977;BMP280;45905;50.570;10.428;2023-07-31T12:21:58;97359.81;;;19.35
61977;BMP280;45905;50.570;10.428;2023-07-31T12:24:27;97358.59;;;19.38
61977;BMP280;45905;50.570;10.428;2023-07-31T12:26:54;97351.81;;;19.43
61977;BMP280;45905;50.570;10.428;2023-07-31T12:29:22;97345.34;;;19.52
61977;BMP280;45905;50.570;10.428;2023-07-31T12:31:50;97339.09;;;19.48
61977;BMP280;45905;50.570;10.428;2023-07-31T12:34:19;97335.38;;;19.44
61977;BMP280;45905;50.570;10.428;2023-07-31T12:36:53;97338.66;;;19.51
61977;BMP280;45905;50.570;10.428;2023-07-31T12:39:21;97328.38;;;19.51
61977;BMP280;45905;50.570;10.428;2023-07-31T12:41:49;97324.16;;;19.56
61977;BMP280;45905;50.570;10.428;2023-07-31T12:44:16;97324.50;;;19.60
61977;BMP280;45905;50.570;10.428;2023-07-31T12:46:44;97319.44;;;19.65
61977;BMP280;45905;50.570;10.428;2023-07-31T12:49:11;97316.66;;;19.66
61977;BMP280;45905;50.570;10.428;2023-07-31T12:51:39;97319.22;;;19.66
61977;BMP280;45905;50.570;10.428;2023-07-31T12:54:06;97307.59;;;19.64
61977;BMP280;45905;50.570;10.428;2023-07-31T12:56:34;97304.03;;;19.65
61977;BMP280;45905;50.570;10.428;2023-07-31T12:59:02;97301.81;;;19.68
61977;BMP280;45905;50.570;10.428;2023-07-31T13:01:29;97298.00;;;19.70
61977;BMP280;45905;50.570;10.428;2023-07-31T13:03:57;97297.78;;;19.72
61977;BMP280;45905;50.570;10.428;2023-07-31T13:06:27;97287.28;;;19.73
61977;BMP280;45905;50.570;10.428;2023-07-31T13:08:55;97288.84;;;19.74
61977;BMP280;45905;50.570;10.428;2023-07-31T13:11:22;97281.78;;;19.81
61977;BMP280;45905;50.570;10.428;2023-07-31T13:13:49;97273.41;;;19.86
61977;BMP280;45905;50.570;10.428;2023-07-31T13:16:17;97275.16;;;19.96
61977;BMP280;45905;50.570;10.428;2023-07-31T13:18:45;97282.28;;;20.06
61977;BMP280;45905;50.570;10.428;2023-07-31T13:21:12;97271.56;;;20.08
61977;BMP280;45905;50.570;10.428;2023-07-31T13:23:40;97266.28;;;20.15
61977;BMP280;45905;50.570;10.428;2023-07-31T13:26:08;97264.38;;;20.22
61977;BMP280;45905;50.570;10.428;2023-07-31T13:28:35;97261.66;;;20.28
61977;BMP280;45905;50.570;10.428;2023-07-31T13:31:02;97252.78;;;20.35
61977;BMP280;45905;50.570;10.428;2023-07-31T13:33:30;97255.34;;;20.46
61977;BMP280;45905;50.570;10.428;2023-07-31T13:36:05;97246.03;;;20.57
61977;BMP280;45905;50.570;10.428;2023-07-31T13:38:33;97246.88;;;20.62
61977;BMP280;45905;50.570;10.428;2023-07-31T13:41:00;97255.44;;;20.67
61977;BMP280;45905;50.570;10.428;2023-07-31T13:43:28;97247.59;;;20.74
61977;BMP280;45905;50.570;10.428;2023-07-31T13:45:56;97234.81;;;20.79
61977;BMP280;45905;50.570;10.428;2023-07-31T13:48:23;97232.28;;;20.83
61977;BMP280;45905;50.570;10.428;2023-07-31T13:50:51;97230.59;;;20.89
61977;BMP280;45905;50.570;10.428;2023-07-31T13:53:18;97222.09;;;20.88
61977;BMP280;45905;50.570;10.428;2023-07-31T13:55:46;97226.22;;;20.89
61977;BMP280;45905;50.570;10.428;2023-07-31T13:58:13;97222.66;;;20.90
61977;BMP280;45905;50.570;10.428;2023-07-31T14:00:41;97221.63;;;20.91
61977;BMP280;45905;50.570;10.428;2023-07-31T14:03:09;97218.00;;;20.92
61977;BMP280;45905;50.570;10.428;2023-07-31T14:05:37;97216.31;;;20.98
61977;BMP280;45905;50.570;10.428;2023-07-31T14:08:05;97216.53;;;20.96
61977;BMP280;45905;50.570;10.428;2023-07-31T14:10:33;97208.28;;;20.94
61977;BMP280;45905;50.570;10.428;2023-07-31T14:13:00;97208.13;;;21.01
61977;BMP280;45905;50.570;10.428;2023-07-31T14:15:28;97209.22;;;21.04
61977;BMP280;45905;50.570;10.428;2023-07-31T14:17:56;97217.16;;;21.03
61977;BMP280;45905;50.570;10.428;2023-07-31T14:20:28;97223.66;;;21.05
61977;BMP280;45905;50.570;10.428;2023-07-31T14:22:56;97222.91;;;21.10